View Single Post
Old 9th Jan 2021, 11:45
  #11 (permalink)  
andrasz
 
Join Date: Sep 2008
Location: Where it is comfortable...
Age: 56
Posts: 776
Could not yet find a good wx radar picture but apparently overcast with embedded CB-s.
Relevant metars:
WIII 090730Z 30006KT 5000 -RA FEW017CB OVC018 25/24 Q1006 NOSIG
WIII 090700Z 30007KT 4000 VCTS RA FEW016CB OVC018 25/24 Q1007 NOSIG
WIII 090630Z 34007KT 2000 TSRA FEW016CB OVC018 25/24 Q1007 NOSIG RMK CB OVER THE FIELD


Last edited by andrasz; 9th Jan 2021 at 11:56.
andrasz is offline